Time;durP1;ratioP1;P1;durP2;ratioP2;P2;SDS_P1;SDS_P2;PMS_P1;PMS_P2;Temp;Humidity;BMP_temperature;BMP_pressure;BME280_temperature;BME280_humidity;BME280_pressure;Samples;Min_cycle;Max_cycle;Signal;HPM_P1;HPM_P2
2022/07/22 00:01:17;;;;;;;9.48;3.97;;;;;;;14.80;100.00;102174.59;6156781;23;20002;-88
2022/07/22 00:03:43;;;;;;;9.98;4.50;;;;;;;14.80;100.00;102174.59;6156943;23;20001;-82
2022/07/22 00:06:08;;;;;;;13.60;4.45;;;;;;;14.84;99.44;102171.72;6156628;23;20379;-83
2022/07/22 00:08:33;;;;;;;11.35;4.75;;;;;;;14.86;100.00;102171.63;6156717;23;20016;-80
2022/07/22 00:10:59;;;;;;;10.18;4.60;;;;;;;14.89;99.98;102179.25;6156936;23;20056;-79
2022/07/22 00:13:24;;;;;;;9.32;4.78;;;;;;;14.93;100.00;102175.53;6156891;23;20518;-80
2022/07/22 00:15:49;;;;;;;10.98;5.45;;;;;;;14.99;100.00;102172.56;6156821;23;20494;-76
2022/07/22 00:18:15;;;;;;;11.40;5.60;;;;;;;14.93;99.88;102162.53;6156773;23;20006;-81
2022/07/22 00:20:41;;;;;;;13.43;5.40;;;;;;;15.00;100.00;102168.19;6156586;23;20416;-82
2022/07/22 00:23:07;;;;;;;11.57;5.00;;;;;;;15.05;100.00;102163.56;6156732;23;20005;-87
2022/07/22 00:25:32;;;;;;;13.18;5.50;;;;;;;14.91;100.00;102148.78;6156517;23;20120;-83
2022/07/22 00:27:58;;;;;;;15.75;5.70;;;;;;;14.95;100.00;102144.25;6156781;23;20041;-82
2022/07/22 00:30:23;;;;;;;18.85;6.05;;;;;;;15.06;100.00;102162.66;6156342;23;20009;-82
2022/07/22 00:32:48;;;;;;;14.60;5.65;;;;;;;14.91;100.00;102135.78;6156417;23;20005;-83
2022/07/22 00:35:14;;;;;;;10.85;5.38;;;;;;;15.05;100.00;102159.19;6155192;23;20005;-83
2022/07/22 00:37:39;;;;;;;10.85;5.53;;;;;;;14.97;100.00;102150.19;6154909;23;20002;-82
2022/07/22 00:40:05;;;;;;;12.13;4.85;;;;;;;14.78;100.00;102133.09;6129241;23;20005;-86
2022/07/22 00:42:31;;;;;;;9.88;5.30;;;;;;;14.84;100.00;102139.66;6156353;23;20331;-80
2022/07/22 00:44:57;;;;;;;14.23;5.82;;;;;;;14.95;100.00;102152.88;6156395;23;20016;-87
2022/07/22 00:47:23;;;;;;;12.55;5.18;;;;;;;14.80;100.00;102139.03;6156297;23;20028;-86
2022/07/22 00:49:48;;;;;;;17.40;5.63;;;;;;;14.77;100.00;102140.97;6156595;23;20002;-78
2022/07/22 00:52:14;;;;;;;15.52;6.28;;;;;;;14.85;100.00;102144.81;6156067;23;20048;-87
2022/07/22 00:54:39;;;;;;;16.05;6.25;;;;;;;14.84;100.00;102129.25;6156450;23;20008;-85
2022/07/22 00:57:05;;;;;;;11.25;6.22;;;;;;;14.98;100.00;102162.25;6156226;23;20353;-85
2022/07/22 00:59:30;;;;;;;18.25;6.35;;;;;;;14.98;100.00;102160.50;6156203;23;20462;-81
2022/07/22 01:01:56;;;;;;;14.10;5.97;;;;;;;14.89;100.00;102143.69;6156208;23;20032;-83
2022/07/22 01:04:21;;;;;;;11.88;6.13;;;;;;;14.98;100.00;102157.06;6130200;23;20372;-85
2022/07/22 01:06:47;;;;;;;11.45;5.70;;;;;;;14.96;100.00;102161.53;6156259;23;20009;-86
2022/07/22 01:09:13;;;;;;;12.73;6.60;;;;;;;14.95;100.00;102155.50;6155669;23;20412;-81
2022/07/22 01:11:39;;;;;;;13.25;6.10;;;;;;;14.81;100.00;102139.84;6155149;23;20129;-84
2022/07/22 01:14:04;;;;;;;13.48;6.22;;;;;;;14.80;100.00;102136.41;6156379;23;20046;-75
2022/07/22 01:16:31;;;;;;;12.15;5.88;;;;;;;14.79;100.00;102137.34;6155994;23;20021;-87
2022/07/22 01:18:56;;;;;;;10.50;6.28;;;;;;;14.78;100.00;102150.44;6155963;23;20001;-86
2022/07/22 01:21:21;;;;;;;15.00;6.68;;;;;;;14.67;100.00;102135.50;6155838;23;20001;-86
2022/07/22 01:23:47;;;;;;;11.95;5.95;;;;;;;14.69;100.00;102151.84;6155921;23;20001;-87
2022/07/22 01:26:13;;;;;;;15.27;5.45;;;;;;;14.63;100.00;102146.97;6155592;23;20016;-88
2022/07/22 01:28:39;;;;;;;12.55;6.00;;;;;;;14.60;100.00;102147.16;6155885;23;20002;-86
2022/07/22 01:31:05;;;;;;;12.80;6.15;;;;;;;14.57;100.00;102131.75;6155997;23;20001;-87
2022/07/22 01:33:31;;;;;;;12.35;5.80;;;;;;;14.62;100.00;102151.34;6156101;23;20447;-87
2022/07/22 01:35:56;;;;;;;12.75;5.50;;;;;;;14.50;100.00;102120.88;6155457;23;20101;-88
2022/07/22 01:38:22;;;;;;;14.00;6.22;;;;;;;14.68;100.00;102144.97;6155626;23;20012;-87
2022/07/22 01:40:47;;;;;;;13.35;5.88;;;;;;;14.66;100.00;102133.81;6153002;23;20009;-85
2022/07/22 01:43:17;;;;;;;12.05;5.95;;;;;;;14.54;100.00;102111.13;6155784;23;20016;-86
2022/07/22 01:45:44;;;;;;;12.82;5.82;;;;;;;14.73;100.00;102142.06;6155806;23;20005;-83
2022/07/22 01:48:09;;;;;;;12.90;6.38;;;;;;;14.74;100.00;102141.13;6155756;23;20009;-88
2022/07/22 01:50:34;;;;;;;13.90;6.15;;;;;;;14.79;100.00;102136.53;6155687;23;20012;-85
2022/07/22 01:53:00;;;;;;;12.27;5.60;;;;;;;14.81;100.00;102137.25;6155662;23;20440;-79
2022/07/22 01:55:25;;;;;;;10.50;5.55;;;;;;;14.81;100.00;102138.09;6155545;23;20088;-76
2022/07/22 01:57:51;;;;;;;13.88;6.30;;;;;;;14.76;100.00;102132.34;6155893;23;20032;-84
2022/07/22 02:00:16;;;;;;;12.68;5.57;;;;;;;14.76;100.00;102123.72;6155614;23;20002;-84
2022/07/22 02:02:42;;;;;;;12.05;6.25;;;;;;;14.89;100.00;102150.63;6155676;23;20014;-81
2022/07/22 02:05:08;;;;;;;14.50;6.43;;;;;;;14.81;100.00;102134.66;6155571;23;20052;-88
2022/07/22 02:07:33;;;;;;;14.07;5.95;;;;;;;14.90;100.00;102147.09;6155363;23;20080;-87
2022/07/22 02:09:59;;;;;;;12.45;6.18;;;;;;;14.90;100.00;102140.13;6155419;23;20415;-86
2022/07/22 02:12:24;;;;;;;12.32;6.07;;;;;;;14.92;100.00;102143.47;6155019;23;20080;-87
2022/07/22 02:14:50;;;;;;;14.38;6.13;;;;;;;14.96;100.00;102141.56;6155572;23;20036;-87
2022/07/22 02:17:15;;;;;;;13.02;5.68;;;;;;;14.97;100.00;102138.00;6155358;23;20009;-85
2022/07/22 02:19:41;;;;;;;11.25;5.82;;;;;;;14.97;100.00;102142.38;6155232;23;20281;-88
2022/07/22 02:22:07;;;;;;;13.68;6.40;;;;;;;14.96;100.00;102138.94;6155134;23;20012;-72
2022/07/22 02:24:32;;;;;;;11.57;6.45;;;;;;;14.97;100.00;102139.78;6152641;23;20020;-86
2022/07/22 02:26:58;;;;;;;12.32;6.35;;;;;;;14.99;100.00;102138.75;6155236;23;20032;-86
2022/07/22 02:29:23;;;;;;;18.50;6.63;;;;;;;15.00;100.00;102139.59;6155239;23;20332;-86
2022/07/22 02:31:49;;;;;;;14.32;6.28;;;;;;;14.85;100.00;102115.34;6155370;23;20033;-85
2022/07/22 02:34:14;;;;;;;15.85;6.45;;;;;;;14.89;100.00;102122.88;6155178;23;20001;-73
2022/07/22 02:36:40;;;;;;;14.63;6.13;;;;;;;14.79;100.00;102100.09;6155606;23;20435;-71
2022/07/22 02:39:05;;;;;;;13.80;6.25;;;;;;;15.00;100.00;102131.78;6155247;23;20021;-87
2022/07/22 02:41:31;;;;;;;12.25;6.38;;;;;;;15.01;100.00;102130.84;6155191;23;20442;-82
2022/07/22 02:43:56;;;;;;;16.85;6.60;;;;;;;14.99;100.00;102137.91;6155124;23;20001;-85
2022/07/22 02:46:23;;;;;;;13.80;5.70;;;;;;;15.02;100.00;102137.72;6154430;23;20442;-85
2022/07/22 02:48:48;;;;;;;15.73;6.20;;;;;;;15.01;100.00;102131.69;6154689;23;20044;-86
2022/07/22 02:51:14;;;;;;;17.23;5.50;;;;;;;15.01;100.00;102130.84;6155391;23;20001;-72
2022/07/22 02:53:39;;;;;;;13.18;6.32;;;;;;;15.01;100.00;102123.88;6155261;23;20002;-85
2022/07/22 02:56:04;;;;;;;13.73;6.25;;;;;;;15.01;100.00;102129.09;6154928;23;20047;-81
2022/07/22 02:58:30;;;;;;;13.75;5.63;;;;;;;15.02;100.00;102128.16;6153111;23;20084;-82
2022/07/22 03:00:55;;;;;;;15.10;6.15;;;;;;;14.98;100.00;102134.47;6155037;23;20503;-71
2022/07/22 03:03:20;;;;;;;12.45;5.75;;;;;;;15.03;100.00;102139.38;6154954;23;20040;-86
2022/07/22 03:05:46;;;;;;;10.50;6.15;;;;;;;14.89;100.00;102112.47;6155039;23;20006;-87
2022/07/22 03:08:12;;;;;;;10.85;5.38;;;;;;;14.98;100.00;102128.44;6155262;23;20129;-84
2022/07/22 03:10:37;;;;;;;13.43;5.53;;;;;;;14.88;100.00;102110.78;6155038;23;20076;-85
2022/07/22 03:13:03;;;;;;;15.85;6.43;;;;;;;15.01;100.00;102130.84;6155129;23;20082;-85
2022/07/22 03:15:28;;;;;;;12.13;5.80;;;;;;;14.99;100.00;102133.56;6154738;23;20013;-87
2022/07/22 03:17:53;;;;;;;14.38;5.75;;;;;;;14.99;100.00;102117.94;6154920;23;20001;-86
2022/07/22 03:20:19;;;;;;;12.75;5.78;;;;;;;14.99;100.00;102124.91;6154965;23;20036;-83
2022/07/22 03:22:44;;;;;;;11.52;5.47;;;;;;;14.96;100.00;102131.16;6154842;23;20037;-83
2022/07/22 03:25:09;;;;;;;11.43;5.38;;;;;;;14.82;100.00;102095.56;6155404;23;19997;-87
2022/07/22 03:27:35;;;;;;;14.75;5.22;;;;;;;14.93;100.00;102115.69;6154996;23;20009;-88
2022/07/22 03:30:00;;;;;;;13.32;5.40;;;;;;;14.90;100.00;102121.09;6154997;23;20016;-85
2022/07/22 03:32:25;;;;;;;8.90;4.85;;;;;;;14.89;100.00;102117.66;6154825;23;20001;-88
2022/07/22 03:34:52;;;;;;;14.88;5.53;;;;;;;14.91;100.00;102115.81;6155308;23;20764;-85
2022/07/22 03:37:17;;;;;;;11.70;5.50;;;;;;;14.88;100.00;102113.41;6157227;23;20009;-83
2022/07/22 03:39:43;;;;;;;14.10;5.60;;;;;;;14.85;100.00;102113.59;6157224;23;20001;-83
2022/07/22 03:42:08;;;;;;;10.45;5.63;;;;;;;14.84;100.00;102113.66;6157229;23;20040;-83
2022/07/22 03:44:33;;;;;;;12.65;5.60;;;;;;;14.76;100.00;102101.13;6156829;23;20435;-82
2022/07/22 03:46:59;;;;;;;15.27;6.18;;;;;;;14.83;100.00;102110.22;6156418;23;20025;-82
2022/07/22 03:49:24;;;;;;;9.82;5.45;;;;;;;14.82;100.00;102113.75;6156498;23;20020;-85
2022/07/22 03:51:50;;;;;;;13.90;6.15;;;;;;;14.77;100.00;102113.22;6156987;23;20009;-86
2022/07/22 03:54:15;;;;;;;16.98;5.75;;;;;;;14.78;100.00;102120.09;6156454;23;20420;-84
2022/07/22 03:56:40;;;;;;;11.27;5.72;;;;;;;14.75;100.00;102112.47;6156705;23;20340;-86
2022/07/22 03:59:06;;;;;;;14.80;5.97;;;;;;;14.77;100.00;102117.56;6156338;23;20062;-85
2022/07/22 04:01:31;;;;;;;16.58;6.50;;;;;;;14.85;100.00;102130.97;6156803;23;20001;-80
2022/07/22 04:03:57;;;;;;;14.45;5.60;;;;;;;14.78;100.00;102108.84;6156585;23;20040;-87
2022/07/22 04:06:22;;;;;;;11.00;5.70;;;;;;;14.78;100.00;102103.63;6156529;23;20001;-84
2022/07/22 04:08:48;;;;;;;12.05;6.32;;;;;;;14.87;100.00;102127.34;6156682;23;20005;-78
2022/07/22 04:11:14;;;;;;;10.95;5.43;;;;;;;14.89;100.00;102122.88;6156527;23;20037;-75
2022/07/22 04:13:39;;;;;;;11.60;5.70;;;;;;;14.94;100.00;102130.38;6156481;23;20005;-84
2022/07/22 04:16:04;;;;;;;15.55;6.50;;;;;;;14.89;100.00;102116.81;6156396;23;20009;-79
2022/07/22 04:18:31;;;;;;;13.07;6.07;;;;;;;15.00;100.00;102129.19;6156015;23;20419;-88
2022/07/22 04:20:56;;;;;;;13.70;6.60;;;;;;;15.02;100.00;102133.34;6156805;23;20068;-82
2022/07/22 04:23:22;;;;;;;11.80;5.88;;;;;;;15.04;100.00;102139.28;6156197;23;20010;-81
2022/07/22 04:25:47;;;;;;;13.38;6.28;;;;;;;14.83;100.00;102096.38;6156667;23;20005;-83
2022/07/22 04:28:13;;;;;;;13.60;6.20;;;;;;;15.08;100.00;102127.78;6156450;23;20005;-83
2022/07/22 04:30:38;;;;;;;13.70;6.40;;;;;;;15.13;100.00;102130.09;6155913;23;20005;-87
2022/07/22 04:33:03;;;;;;;14.23;6.65;;;;;;;15.07;100.00;102120.91;6156632;23;20052;-86
2022/07/22 04:35:29;;;;;;;14.10;5.50;;;;;;;15.19;100.00;102127.97;6156252;23;20331;-84
2022/07/22 04:37:54;;;;;;;12.70;5.85;;;;;;;15.08;100.00;102101.78;6156546;23;20032;-87
2022/07/22 04:40:19;;;;;;;15.80;6.60;;;;;;;15.22;100.00;102113.91;6156488;23;20029;-87
2022/07/22 04:42:45;;;;;;;12.65;5.97;;;;;;;15.31;100.00;102121.16;6156586;23;20060;-85
2022/07/22 04:45:11;;;;;;;13.57;6.10;;;;;;;15.35;100.00;102124.41;6156464;23;20017;-87
2022/07/22 04:47:37;;;;;;;15.73;5.50;;;;;;;15.39;100.00;102118.91;6156461;23;20024;-87
2022/07/22 04:50:02;;;;;;;15.73;5.93;;;;;;;15.45;100.00;102117.72;6156053;23;20080;-86
2022/07/22 04:52:28;;;;;;;12.32;6.00;;;;;;;15.49;100.00;102119.16;6156551;23;20002;-87
2022/07/22 04:54:53;;;;;;;19.27;6.82;;;;;;;15.56;100.00;102123.06;6129609;23;20048;-84
2022/07/22 04:57:18;;;;;;;10.93;5.95;;;;;;;15.64;100.00;102115.66;6156123;23;20090;-87
2022/07/22 04:59:44;;;;;;;15.00;6.22;;;;;;;15.71;100.00;102109.09;6156356;23;20431;-86
2022/07/22 05:02:09;;;;;;;13.23;5.97;;;;;;;15.74;100.00;102105.47;6156374;23;20036;-89
2022/07/22 05:04:34;;;;;;;13.10;5.45;;;;;;;15.73;100.00;102096.81;6156084;23;20044;-83
2022/07/22 05:07:00;;;;;;;11.82;5.57;;;;;;;15.90;100.00;102113.94;6156368;23;20349;-87
2022/07/22 05:09:25;;;;;;;13.75;6.30;;;;;;;15.95;100.00;102106.69;6153347;23;20016;-85
2022/07/22 05:11:51;;;;;;;12.30;5.57;;;;;;;15.92;99.37;102090.41;6156346;23;20012;-83
2022/07/22 05:14:16;;;;;;;12.98;6.03;;;;;;;16.00;97.55;102108.97;6155947;23;19998;-87
2022/07/22 05:16:41;;;;;;;15.30;6.15;;;;;;;15.99;97.70;102100.31;6156164;23;20367;-81
2022/07/22 05:19:07;;;;;;;11.50;5.53;;;;;;;16.17;97.59;102115.69;6156339;23;19997;-87
2022/07/22 05:21:33;;;;;;;16.40;6.75;;;;;;;16.28;96.95;102115.81;6155673;23;20080;-86
2022/07/22 05:23:58;;;;;;;14.65;5.97;;;;;;;16.16;96.69;102080.16;6156257;23;20115;-89
2022/07/22 05:26:24;;;;;;;11.35;5.50;;;;;;;16.30;95.74;102096.50;6156137;23;20033;-86
2022/07/22 05:28:50;;;;;;;12.73;5.65;;;;;;;16.41;95.40;102105.38;6156117;23;20431;-85
2022/07/22 05:31:15;;;;;;;14.05;6.18;;;;;;;16.51;95.01;102112.50;6156023;23;20009;-76
2022/07/22 05:33:40;;;;;;;8.82;4.93;;;;;;;16.76;94.65;102110.88;6156484;23;20010;-89
2022/07/22 05:36:06;;;;;;;12.88;5.25;;;;;;;16.94;93.05;102116.59;6152774;23;20014;-91
2022/07/22 05:38:33;;;;;;;11.30;4.88;;;;;;;17.23;93.26;102112.78;6155742;23;20080;-92
2022/07/22 05:40:58;;;;;;;11.65;5.18;;;;;;;17.37;91.79;102115.25;6155740;23;20008;-84
2022/07/22 05:43:24;;;;;;;14.00;4.78;;;;;;;17.51;89.05;102116.03;6156042;23;20033;-82
2022/07/22 05:45:49;;;;;;;11.43;4.88;;;;;;;17.59;88.63;102116.31;6156080;23;20008;-89
2022/07/22 05:48:14;;;;;;;11.77;4.40;;;;;;;17.88;88.50;102116.84;6155742;23;20009;-90
2022/07/22 05:50:40;;;;;;;10.10;4.63;;;;;;;17.97;87.51;102121.38;6155871;23;20481;-91
2022/07/22 05:53:05;;;;;;;12.13;4.38;;;;;;;18.28;83.76;102126.00;6155734;23;20006;-75
2022/07/22 05:55:31;;;;;;;8.85;4.07;;;;;;;18.47;83.07;102111.53;6155428;23;20009;-93
2022/07/22 05:57:56;;;;;;;11.57;5.10;;;;;;;18.54;81.41;102126.66;6155387;23;20072;-91
2022/07/22 06:00:21;;;;;;;11.65;4.97;;;;;;;18.61;80.67;102101.69;6155764;23;20084;-90
2022/07/22 06:02:47;;;;;;;9.82;4.40;;;;;;;18.80;79.36;102110.78;6155640;23;20008;-86
2022/07/22 06:05:12;;;;;;;9.25;4.80;;;;;;;18.73;81.59;102097.34;6155781;23;20029;-85
2022/07/22 06:07:37;;;;;;;12.30;4.30;;;;;;;18.84;80.35;102115.66;6155705;23;20014;-87
2022/07/22 06:10:03;;;;;;;13.70;5.20;;;;;;;18.90;78.42;102112.56;6155769;23;20005;-92
2022/07/22 06:12:29;;;;;;;10.98;4.30;;;;;;;18.87;79.61;102104.09;6155410;23;20005;-91
2022/07/22 06:14:54;;;;;;;9.95;3.85;;;;;;;18.98;76.84;102109.38;6156976;23;20026;-91
2022/07/22 06:17:20;;;;;;;10.45;4.35;;;;;;;19.17;78.15;102114.81;6155930;23;20044;-86
2022/07/22 06:19:45;;;;;;;13.52;4.68;;;;;;;19.40;76.91;102117.41;6155951;23;20008;-86
2022/07/22 06:22:11;;;;;;;11.05;4.32;;;;;;;19.59;75.52;102114.16;6156044;23;20056;-91
2022/07/22 06:24:36;;;;;;;11.77;4.47;;;;;;;19.77;72.95;102123.16;6155017;23;20010;-82
2022/07/22 06:27:01;;;;;;;10.07;3.97;;;;;;;20.02;72.97;102119.34;6155623;23;20009;-89
2022/07/22 06:29:27;;;;;;;13.15;4.60;;;;;;;20.01;71.72;102117.69;6155557;23;20006;-92
2022/07/22 06:31:52;;;;;;;8.40;3.30;;;;;;;19.98;73.10;102121.41;6155248;23;20002;-89
2022/07/22 06:34:17;;;;;;;10.32;3.17;;;;;;;19.89;70.81;102111.66;6156205;23;20419;-87
2022/07/22 06:36:43;;;;;;;7.03;3.25;;;;;;;19.68;71.91;102095.91;6128334;23;20064;-86
2022/07/22 06:39:08;;;;;;;10.70;3.40;;;;;;;19.80;73.11;102112.41;6155043;23;20001;-89
2022/07/22 06:41:33;;;;;;;7.88;3.30;;;;;;;19.84;73.33;102121.69;6155306;23;20009;-81
2022/07/22 06:43:59;;;;;;;10.10;4.25;;;;;;;19.74;72.67;102123.38;6155439;23;20297;-85
2022/07/22 06:46:24;;;;;;;7.85;3.55;;;;;;;19.94;71.81;102125.22;6155284;23;20009;-85
2022/07/22 06:48:49;;;;;;;8.63;3.47;;;;;;;20.34;69.58;102111.41;6154956;23;20009;-83
2022/07/22 06:51:15;;;;;;;10.20;3.47;;;;;;;20.68;67.79;102104.19;6155042;23;20009;-88
2022/07/22 06:53:41;;;;;;;9.30;3.20;;;;;;;20.83;66.13;102110.72;6155165;23;20440;-90
2022/07/22 06:56:06;;;;;;;7.80;3.08;;;;;;;20.66;67.76;102084.28;6155037;23;20012;-87
2022/07/22 06:58:32;;;;;;;10.10;3.42;;;;;;;21.07;66.89;102114.84;6155746;23;20006;-82
2022/07/22 07:00:57;;;;;;;7.63;3.33;;;;;;;21.06;64.00;102103.50;6155540;23;20446;-87
2022/07/22 07:03:25;;;;;;;4.57;2.60;;;;;;;20.89;64.69;102102.34;6156589;23;20001;-88
2022/07/22 07:05:50;;;;;;;6.55;2.45;;;;;;;20.33;63.72;102097.47;6156135;23;20041;-92
2022/07/22 07:08:15;;;;;;;6.45;3.00;;;;;;;20.04;64.92;102106.94;6155546;23;20052;-92
2022/07/22 07:10:41;;;;;;;8.00;3.25;;;;;;;20.03;68.24;102123.63;6156288;23;20001;-82
2022/07/22 07:13:06;;;;;;;4.78;2.30;;;;;;;19.99;66.39;102115.19;6157552;23;20032;-83
2022/07/22 07:15:32;;;;;;;8.45;2.47;;;;;;;19.98;66.16;102116.16;6130086;23;20344;-79
2022/07/22 07:17:57;;;;;;;4.50;2.10;;;;;;;19.85;66.09;102117.28;6157335;23;20017;-86
2022/07/22 07:20:24;;;;;;;4.55;2.00;;;;;;;19.65;66.68;102113.66;6157087;23;20034;-84
2022/07/22 07:22:49;;;;;;;6.78;2.50;;;;;;;20.04;66.21;102102.50;6156996;23;20029;-87
2022/07/22 07:25:15;;;;;;;6.05;2.45;;;;;;;21.44;62.90;102104.59;6157106;23;20408;-85
2022/07/22 07:27:40;;;;;;;7.55;2.63;;;;;;;22.69;61.23;102093.06;6156570;23;20005;-87
2022/07/22 07:30:08;;;;;;;7.05;2.80;;;;;;;24.35;52.40;102088.28;6157111;23;20014;-87
2022/07/22 07:32:34;;;;;;;7.25;3.10;;;;;;;24.71;52.11;102073.97;6157216;23;20031;-89
2022/07/22 07:34:59;;;;;;;6.78;2.83;;;;;;;25.81;49.07;102091.41;6156947;23;20109;-78
2022/07/22 07:37:24;;;;;;;6.30;2.97;;;;;;;26.51;47.13;102094.31;6156809;23;20061;-85
2022/07/22 07:39:50;;;;;;;7.25;3.03;;;;;;;25.70;49.51;102089.09;6156768;23;19997;-72
2022/07/22 07:42:16;;;;;;;9.52;2.60;;;;;;;25.01;49.47;102077.03;6154316;23;20076;-84
2022/07/22 07:44:41;;;;;;;10.05;2.50;;;;;;;24.61;52.75;102094.41;6155239;23;20019;-83
2022/07/22 07:47:07;;;;;;;4.72;1.70;;;;;;;24.14;49.81;102099.19;6156913;23;20040;-86
2022/07/22 07:49:32;;;;;;;5.38;1.73;;;;;;;23.58;50.58;102097.72;6155241;23;20001;-92
2022/07/22 07:51:57;;;;;;;4.80;1.67;;;;;;;23.08;52.70;102080.56;6156652;23;20051;-91
2022/07/22 07:54:23;;;;;;;5.57;1.60;;;;;;;22.52;50.14;102093.84;6156391;23;20009;-92
2022/07/22 07:56:48;;;;;;;4.80;1.80;;;;;;;21.75;51.29;102102.66;6156358;23;20097;-82
2022/07/22 07:59:14;;;;;;;4.65;1.70;;;;;;;21.51;54.97;102095.16;6156828;23;20103;-89
2022/07/22 08:01:39;;;;;;;6.35;2.10;;;;;;;21.46;56.41;102079.81;6156753;23;20309;-82
2022/07/22 08:04:04;;;;;;;4.93;1.55;;;;;;;21.44;56.44;102100.16;6156942;23;20092;-85
2022/07/22 08:06:30;;;;;;;3.95;1.50;;;;;;;21.22;56.93;102102.13;6157055;23;20080;-92
2022/07/22 08:08:55;;;;;;;4.75;1.60;;;;;;;20.90;54.30;102098.75;6156838;23;20375;-89
2022/07/22 08:11:21;;;;;;;3.75;1.50;;;;;;;20.63;59.04;102090.59;6156200;23;20005;-89
2022/07/22 08:13:46;;;;;;;6.43;1.83;;;;;;;20.59;58.24;102097.91;6156602;23;20052;-74
2022/07/22 08:16:11;;;;;;;6.75;1.90;;;;;;;20.45;59.65;102089.53;6156797;23;20009;-81
2022/07/22 08:18:37;;;;;;;4.35;1.60;;;;;;;20.44;60.22;102086.09;6156635;23;20109;-91
2022/07/22 08:21:02;;;;;;;6.05;1.80;;;;;;;20.43;57.41;102094.94;6156287;23;20005;-82
2022/07/22 08:23:28;;;;;;;3.15;1.70;;;;;;;20.38;57.49;102101.50;6156957;23;20013;-87
2022/07/22 08:25:53;;;;;;;3.15;1.52;;;;;;;20.27;55.84;102091.91;6156341;23;20395;-83
2022/07/22 08:28:18;;;;;;;3.58;1.50;;;;;;;20.01;56.82;102087.03;6156257;23;20317;-88
2022/07/22 08:30:44;;;;;;;4.47;2.10;;;;;;;20.42;59.33;102097.66;6156379;23;20013;-85
2022/07/22 08:33:09;;;;;;;6.85;2.10;;;;;;;20.79;56.43;102096.22;6156293;23;20332;-84
2022/07/22 08:35:35;;;;;;;3.72;1.70;;;;;;;21.25;55.43;102084.34;6156553;23;20009;-90
2022/07/22 08:38:01;;;;;;;4.95;2.17;;;;;;;21.57;54.08;102099.06;6156426;23;20450;-88
2022/07/22 08:40:27;;;;;;;5.50;2.00;;;;;;;21.78;55.72;102094.50;6155802;23;20077;-90
2022/07/22 08:42:52;;;;;;;7.03;1.88;;;;;;;21.80;53.28;102075.94;6156394;23;20368;-89
2022/07/22 08:45:19;;;;;;;10.85;2.40;;;;;;;21.56;54.52;102081.63;6156409;23;20052;-91
2022/07/22 08:47:46;;;;;;;4.18;2.35;;;;;;;21.34;54.85;102080.91;6155866;23;20049;-87
2022/07/22 08:50:11;;;;;;;5.57;2.00;;;;;;;20.99;55.38;102067.41;6155991;23;20033;-88
2022/07/22 08:52:38;;;;;;;6.93;2.10;;;;;;;20.95;56.89;102071.25;6156130;23;20001;-91
2022/07/22 08:55:08;;;;;;;6.28;2.17;;;;;;;21.05;60.19;102082.63;6156040;23;20041;-87
2022/07/22 08:57:35;;;;;;;5.80;2.23;;;;;;;21.15;57.66;102065.09;6130451;23;20037;-87
2022/07/22 09:00:01;;;;;;;6.07;1.90;;;;;;;21.48;54.69;102084.94;6156102;23;20048;-90
2022/07/22 09:02:27;;;;;;;6.22;2.17;;;;;;;21.49;55.44;102078.72;6155906;23;20331;-86
2022/07/22 09:04:53;;;;;;;3.30;1.70;;;;;;;21.56;57.27;102077.19;6155833;23;20012;-88
2022/07/22 09:07:36;;;;;;;5.88;1.80;;;;;;;21.41;56.83;102082.00;6156082;23;20077;-86
2022/07/22 09:10:09;;;;;;;4.82;2.05;;;;;;;21.28;57.38;102068.31;6155967;23;20498;-84
2022/07/22 09:12:51;;;;;;;4.75;1.73;;;;;;;21.41;57.05;102086.44;6156088;23;20008;-85
2022/07/22 09:15:25;;;;;;;3.42;1.60;;;;;;;21.34;57.57;102091.44;6155703;23;20462;-87
2022/07/22 09:17:51;;;;;;;3.97;2.05;;;;;;;21.38;55.45;102091.97;6156097;23;20092;-88
2022/07/22 09:20:18;;;;;;;4.47;1.90;;;;;;;21.54;54.75;102088.81;6155730;23;20109;-82
2022/07/22 09:22:46;;;;;;;4.65;1.85;;;;;;;21.56;55.65;102085.09;6155926;23;20005;-85
2022/07/22 09:25:17;;;;;;;4.70;2.00;;;;;;;21.66;54.53;102079.84;6155852;23;20420;-86
2022/07/22 09:27:43;;;;;;;4.70;2.13;;;;;;;21.34;54.90;102059.06;6155846;23;20048;-90
2022/07/22 09:30:13;;;;;;;4.25;2.00;;;;;;;21.45;54.85;102070.28;6156376;23;20009;-83
2022/07/22 09:32:41;;;;;;;5.45;1.75;;;;;;;21.65;55.58;102067.66;6155659;23;20060;-91
2022/07/22 09:35:07;;;;;;;6.60;1.92;;;;;;;21.63;54.07;102078.31;6155457;23;20028;-85
2022/07/22 09:37:32;;;;;;;9.10;2.25;;;;;;;21.36;54.90;102051.88;6155725;23;20005;-90
2022/07/22 09:40:18;;;;;;;3.47;1.45;;;;;;;21.88;55.90;102074.28;6155980;23;20428;-88
2022/07/22 09:42:55;;;;;;;5.47;2.55;;;;;;;21.91;55.32;102060.84;6155467;23;20087;-88
2022/07/22 09:45:22;;;;;;;5.65;2.50;;;;;;;21.99;54.50;102066.22;6155720;23;20447;-89
2022/07/22 09:47:49;;;;;;;6.13;2.40;;;;;;;21.84;52.56;102027.38;6155429;23;20116;-87
2022/07/22 09:50:15;;;;;;;3.90;1.98;;;;;;;22.04;50.66;102032.44;6155711;23;20005;-87
2022/07/22 09:52:42;;;;;;;5.60;2.22;;;;;;;21.95;52.52;102056.16;6155728;23;20002;-87
2022/07/22 09:55:08;;;;;;;3.97;1.95;;;;;;;21.68;53.68;102067.38;6155953;23;20016;-87
2022/07/22 09:57:33;;;;;;;6.80;2.63;;;;;;;21.11;53.42;102029.53;6155805;23;20395;-88
2022/07/22 09:59:58;;;;;;;5.18;2.15;;;;;;;21.17;53.75;102035.09;6155778;23;20002;-85
2022/07/22 10:02:25;;;;;;;5.07;2.10;;;;;;;21.50;54.40;102053.25;6155426;23;20434;-85
2022/07/22 10:04:52;;;;;;;4.13;1.98;;;;;;;21.60;54.35;102060.16;6155788;23;20009;-87
2022/07/22 10:07:18;;;;;;;6.28;2.40;;;;;;;21.69;57.44;102022.53;6155452;23;20002;-87
2022/07/22 10:09:46;;;;;;;5.22;2.15;;;;;;;21.97;52.14;102064.72;6155813;23;20014;-83
2022/07/22 10:12:13;;;;;;;4.57;2.25;;;;;;;21.97;49.93;102068.19;6155482;23;20081;-82
2022/07/22 10:14:38;;;;;;;4.47;2.03;;;;;;;21.80;52.83;102039.13;6155374;23;20047;-75
2022/07/22 10:17:04;;;;;;;6.78;2.30;;;;;;;21.95;54.33;102059.59;6155130;23;20002;-73
2022/07/22 10:19:29;;;;;;;9.07;2.70;;;;;;;21.95;52.49;102062.22;6155253;23;20384;-80
2022/07/22 10:21:55;;;;;;;9.00;3.13;;;;;;;22.22;53.53;102058.03;6155215;23;20025;-78
2022/07/22 10:24:23;;;;;;;5.00;2.47;;;;;;;22.54;49.93;102049.78;6155260;23;20013;-82
2022/07/22 10:26:51;;;;;;;4.55;2.28;;;;;;;22.66;52.28;102060.94;6155151;23;20331;-81
2022/07/22 10:29:38;;;;;;;6.15;2.25;;;;;;;22.81;52.93;102067.38;6155525;23;20002;-79
2022/07/22 10:32:16;;;;;;;4.53;2.08;;;;;;;22.92;51.11;102064.59;6154986;23;20067;-83
2022/07/22 10:34:43;;;;;;;6.55;2.13;;;;;;;22.81;49.73;102047.16;6155079;23;20001;-80
2022/07/22 10:37:33;;;;;;;5.78;2.47;;;;;;;22.73;51.38;102054.13;6155381;23;20001;-82
2022/07/22 10:40:14;;;;;;;5.22;2.33;;;;;;;22.53;50.31;102062.13;6155046;23;20001;-81
2022/07/22 10:43:03;;;;;;;4.73;2.40;;;;;;;22.58;52.99;102061.66;6153739;23;20056;-74
2022/07/22 10:45:45;;;;;;;6.63;2.40;;;;;;;22.35;51.72;102034.88;6155967;23;20033;-74
2022/07/22 10:48:13;;;;;;;6.85;2.72;;;;;;;22.74;52.04;102055.78;6155524;23;20317;-80
2022/07/22 10:50:44;;;;;;;6.32;2.65;;;;;;;22.76;49.06;102061.72;6155510;23;20383;-82
2022/07/22 10:53:40;;;;;;;6.43;2.25;;;;;;;22.64;51.67;102062.91;6155150;23;20006;-80
2022/07/22 10:56:14;;;;;;;4.80;2.42;;;;;;;22.40;52.09;102047.59;6155178;23;20319;-72
2022/07/22 10:58:51;;;;;;;8.13;2.67;;;;;;;22.42;53.30;102057.03;6155232;23;20005;-76
2022/07/22 11:01:20;;;;;;;6.75;2.88;;;;;;;22.29;50.34;102045.97;6155060;23;19998;-78
2022/07/22 11:03:48;;;;;;;6.80;2.60;;;;;;;22.04;51.44;102035.09;6154912;23;20483;-77
2022/07/22 11:06:18;;;;;;;5.55;3.00;;;;;;;21.98;51.36;102046.16;6155225;23;20001;-76
2022/07/22 11:08:45;;;;;;;5.93;3.30;;;;;;;21.79;52.17;102040.94;6154970;23;20412;-81
2022/07/22 11:11:11;;;;;;;6.82;3.47;;;;;;;21.72;48.83;102045.91;6155421;23;20056;-78
2022/07/22 11:13:41;;;;;;;6.47;3.30;;;;;;;21.65;51.58;102029.06;6154908;23;20421;-76